createdAt,value
2022-08-09T00:05:03.191Z,1.80
2022-08-09T00:15:26.770Z,2.33
2022-08-09T00:25:51.824Z,1.60
2022-08-09T00:35:59.675Z,2.65
2022-08-09T00:46:08.593Z,1.48
2022-08-09T00:56:14.041Z,2.20
2022-08-09T01:06:53.308Z,2.08
2022-08-09T01:16:57.044Z,2.47
2022-08-09T01:27:13.265Z,2.58
2022-08-09T01:37:17.409Z,2.42
2022-08-09T01:47:44.920Z,1.98
2022-08-09T01:57:58.815Z,2.33
2022-08-09T02:08:39.897Z,2.10
2022-08-09T02:18:42.845Z,2.50
2022-08-09T02:28:54.081Z,2.40
2022-08-09T02:39:19.775Z,2.53
2022-08-09T02:49:27.235Z,2.22
2022-08-09T03:00:20.484Z,2.10
2022-08-09T03:10:16.407Z,2.03
2022-08-09T03:20:21.179Z,2.03
2022-08-09T03:30:33.856Z,2.58
2022-08-09T03:40:41.227Z,2.13
2022-08-09T03:50:46.028Z,2.30
2022-08-09T04:01:01.163Z,2.63
2022-08-09T04:11:06.033Z,2.72
2022-08-09T04:21:15.477Z,2.40
2022-08-09T04:31:17.659Z,2.40
2022-08-09T04:41:33.769Z,2.50
2022-08-09T04:51:54.785Z,2.67
2022-08-09T05:02:03.484Z,3.20
2022-08-09T05:12:14.665Z,3.17
2022-08-09T05:22:33.408Z,3.20
2022-08-09T05:32:44.122Z,2.63
2022-08-09T05:42:46.273Z,2.67
2022-08-09T05:52:54.821Z,3.28
2022-08-09T06:03:10.784Z,3.45
2022-08-09T06:13:20.293Z,3.80
2022-08-09T06:23:24.339Z,3.00
2022-08-09T06:33:54.825Z,2.70
2022-08-09T06:44:01.673Z,3.10
2022-08-09T06:54:14.743Z,3.08
2022-08-09T07:04:21.763Z,3.30
2022-08-09T07:14:33.160Z,3.40
2022-08-09T07:24:44.515Z,3.35
2022-08-09T07:34:53.070Z,2.78
2022-08-09T07:44:59.672Z,4.03
2022-08-09T07:55:09.644Z,3.10
2022-08-09T08:05:17.984Z,2.97
2022-08-09T08:15:24.275Z,2.65
2022-08-09T08:25:40.154Z,2.50
2022-08-09T08:35:59.053Z,2.60
2022-08-09T08:46:33.494Z,2.22
2022-08-09T08:56:46.636Z,2.08
2022-08-09T09:06:52.071Z,2.83
2022-08-09T09:16:55.446Z,2.15
2022-08-09T09:27:01.684Z,1.65
2022-08-09T09:37:05.192Z,1.67
2022-08-09T09:47:21.348Z,2.40
2022-08-09T09:58:02.226Z,2.30
2022-08-09T10:08:10.776Z,2.30
2022-08-09T10:18:12.648Z,2.30
2022-08-09T10:28:15.692Z,2.35
2022-08-09T10:38:34.647Z,2.53
2022-08-09T10:49:02.218Z,2.20
2022-08-09T10:59:31.005Z,2.17
2022-08-09T11:09:41.339Z,1.95
2022-08-09T11:20:07.950Z,2.20
2022-08-09T11:30:48.004Z,2.45
2022-08-09T11:40:54.969Z,1.60
2022-08-09T11:52:48.465Z,2.00
2022-08-09T12:02:16.341Z,1.55
2022-08-09T12:12:20.094Z,2.15
2022-08-09T12:22:23.627Z,1.60
2022-08-09T12:32:31.993Z,2.15
2022-08-09T12:42:45.211Z,1.95
2022-08-09T12:53:08.024Z,1.90
2022-08-09T13:03:20.690Z,2.15
2022-08-09T13:14:11.938Z,1.90
2022-08-09T13:24:52.671Z,2.70
2022-08-09T13:34:41.153Z,2.85
2022-08-09T13:44:48.631Z,2.60
2022-08-09T13:55:00.745Z,2.33
2022-08-09T14:05:13.498Z,2.28
2022-08-09T14:16:07.039Z,2.42
2022-08-09T14:26:10.062Z,1.92
2022-08-09T14:36:20.456Z,2.65
2022-08-09T14:46:56.603Z,2.70
2022-08-09T14:56:57.287Z,2.13
2022-08-09T15:07:10.311Z,2.22
2022-08-09T15:17:15.952Z,2.25
2022-08-09T15:27:20.028Z,2.80
2022-08-09T15:37:37.983Z,2.45
2022-08-09T15:48:05.340Z,2.40
2022-08-09T15:58:26.750Z,2.47
2022-08-09T16:08:32.118Z,2.42
2022-08-09T16:18:44.890Z,2.40
2022-08-09T16:28:49.145Z,2.78
2022-08-09T16:38:58.243Z,2.30
2022-08-09T16:49:16.814Z,2.40
2022-08-09T16:59:28.217Z,2.08
2022-08-09T17:09:44.931Z,2.67
2022-08-09T17:20:29.826Z,3.50
2022-08-09T17:30:14.429Z,2.35
2022-08-09T17:40:22.156Z,2.67
2022-08-09T17:50:36.661Z,2.28
2022-08-09T18:00:46.567Z,2.70
2022-08-09T18:11:02.211Z,2.45
2022-08-09T18:21:23.810Z,3.30
2022-08-09T18:31:55.165Z,3.00
2022-08-09T18:42:08.760Z,3.45
2022-08-09T18:52:18.745Z,3.38
2022-08-09T19:02:32.049Z,2.75
2022-08-09T19:12:38.375Z,3.60
2022-08-09T19:22:40.653Z,3.17
2022-08-09T19:32:59.907Z,3.35
2022-08-09T19:43:05.403Z,3.45
2022-08-09T19:53:13.037Z,3.40
2022-08-09T20:04:25.078Z,3.80
2022-08-09T20:13:38.271Z,2.97
2022-08-09T20:23:43.310Z,2.80
2022-08-09T20:33:58.234Z,4.13
2022-08-09T20:44:00.670Z,3.40
2022-08-09T20:54:03.592Z,3.10
2022-08-09T21:05:51.340Z,3.78
2022-08-09T21:14:40.367Z,4.00
2022-08-09T21:25:05.026Z,3.58
2022-08-09T21:35:07.348Z,4.07
2022-08-09T21:45:17.326Z,3.42
2022-08-09T21:55:24.639Z,5.20
2022-08-09T22:05:36.074Z,4.40
2022-08-09T22:15:40.032Z,4.57
2022-08-09T22:26:06.754Z,4.38
2022-08-09T22:36:10.158Z,4.50
2022-08-09T22:48:16.185Z,4.32
2022-08-09T22:56:35.454Z,4.22
2022-08-09T23:06:59.491Z,4.22
2022-08-09T23:17:03.864Z,3.80
2022-08-09T23:27:06.248Z,4.13
2022-08-09T23:37:08.718Z,4.15
2022-08-09T23:47:20.630Z,4.18
2022-08-09T23:57:22.705Z,3.97
